createdAt,value
2023-02-06T00:00:57.290Z,1021.02
2023-02-06T00:01:57.268Z,1021.03
2023-02-06T00:02:57.264Z,1020.99
2023-02-06T00:03:57.242Z,1021.00
2023-02-06T00:04:57.227Z,1021.07
2023-02-06T00:05:57.501Z,1021.06
2023-02-06T00:06:57.248Z,1021.08
2023-02-06T00:07:57.235Z,1021.07
2023-02-06T00:08:57.186Z,1021.07
2023-02-06T00:09:57.168Z,1021.05
2023-02-06T00:10:57.157Z,1021.05
2023-02-06T00:11:57.147Z,1021.05
2023-02-06T00:12:57.136Z,1021.08
2023-02-06T00:13:57.154Z,1021.09
2023-02-06T00:14:57.139Z,1021.07
2023-02-06T00:15:57.177Z,1021.08
2023-02-06T00:16:57.110Z,1021.16
2023-02-06T00:17:57.085Z,1021.16
2023-02-06T00:18:57.073Z,1021.12
2023-02-06T00:19:57.086Z,1021.13
2023-02-06T00:20:57.053Z,1021.22
2023-02-06T00:21:57.045Z,1021.14
2023-02-06T00:22:57.027Z,1021.18
2023-02-06T00:23:57.022Z,1021.15
2023-02-06T00:24:57.005Z,1021.13
2023-02-06T00:25:57.035Z,1021.10
2023-02-06T00:26:56.998Z,1021.13
2023-02-06T00:27:56.998Z,1021.19
2023-02-06T00:28:56.963Z,1021.12
2023-02-06T00:29:56.957Z,1021.11
2023-02-06T00:30:56.981Z,1021.18
2023-02-06T00:31:56.958Z,1021.18
2023-02-06T00:32:56.920Z,1021.19
2023-02-06T00:33:56.916Z,1021.16
2023-02-06T00:34:56.897Z,1021.12
2023-02-06T00:35:56.888Z,1021.19
2023-02-06T00:36:56.878Z,1021.17
2023-02-06T00:37:56.918Z,1021.12
2023-02-06T00:38:56.865Z,1021.15
2023-02-06T00:39:56.847Z,1021.12
2023-02-06T00:40:56.840Z,1021.16
2023-02-06T00:41:56.818Z,1021.21
2023-02-06T00:42:56.809Z,1021.15
2023-02-06T00:43:56.812Z,1021.24
2023-02-06T00:44:56.788Z,1021.22
2023-02-06T00:45:56.784Z,1021.24
2023-02-06T00:46:56.770Z,1021.17
2023-02-06T00:47:56.758Z,1021.27
2023-02-06T00:48:56.768Z,1021.23
2023-02-06T00:49:56.739Z,1021.21
2023-02-06T00:50:56.732Z,1021.27
2023-02-06T00:51:56.709Z,1021.25
2023-02-06T00:52:56.725Z,1021.27
2023-02-06T00:53:56.689Z,1021.23
2023-02-06T00:54:56.699Z,1021.24
2023-02-06T00:55:56.681Z,1021.30
2023-02-06T00:56:56.666Z,1021.26
2023-02-06T00:57:56.648Z,1021.35
2023-02-06T00:58:56.641Z,1021.29
2023-02-06T00:59:56.628Z,1021.29
2023-02-06T01:00:56.654Z,1021.30
2023-02-06T01:01:56.628Z,1021.34
2023-02-06T01:02:56.619Z,1021.33
2023-02-06T01:03:56.578Z,1021.42
2023-02-06T01:04:56.568Z,1021.40
2023-02-06T01:05:56.555Z,1021.36
2023-02-06T01:06:56.574Z,1021.36
2023-02-06T01:07:56.534Z,1021.36
2023-02-06T01:08:56.523Z,1021.31
2023-02-06T01:09:56.513Z,1021.33
2023-02-06T01:10:56.503Z,1021.33
2023-02-06T01:11:56.512Z,1021.33
2023-02-06T01:12:56.473Z,1021.32
2023-02-06T01:13:56.462Z,1021.34
2023-02-06T01:14:56.452Z,1021.34
2023-02-06T01:15:56.447Z,1021.40
2023-02-06T01:16:56.440Z,1021.43
2023-02-06T01:17:56.436Z,1021.39
2023-02-06T01:18:56.410Z,1021.44
2023-02-06T01:19:56.400Z,1021.42
2023-02-06T01:20:56.389Z,1021.42
2023-02-06T01:21:56.369Z,1021.46
2023-02-06T01:22:56.390Z,1021.42
2023-02-06T01:23:56.357Z,1021.48
2023-02-06T01:24:56.347Z,1021.49
2023-02-06T01:25:56.329Z,1021.45
2023-02-06T01:26:56.321Z,1021.44
2023-02-06T01:27:56.317Z,1021.40
2023-02-06T01:28:56.328Z,1021.43
2023-02-06T01:29:56.288Z,1021.45
2023-02-06T01:30:56.423Z,1021.43
2023-02-06T01:31:56.268Z,1021.40
2023-02-06T01:32:56.257Z,1021.40
2023-02-06T01:33:56.251Z,1021.33
2023-02-06T01:34:56.266Z,1021.30
2023-02-06T01:35:56.218Z,1021.33
2023-02-06T01:36:56.207Z,1021.37
2023-02-06T01:37:56.198Z,1021.31
2023-02-06T01:38:56.187Z,1021.37
2023-02-06T01:39:56.179Z,1021.33
2023-02-06T01:40:56.208Z,1021.33
2023-02-06T01:41:56.155Z,1021.30
2023-02-06T01:42:56.152Z,1021.31
2023-02-06T01:43:56.129Z,1021.33
2023-02-06T01:44:56.140Z,1021.34
2023-02-06T01:45:56.109Z,1021.35
2023-02-06T01:46:56.174Z,1021.34
2023-02-06T01:47:56.087Z,1021.37
2023-02-06T01:48:56.079Z,1021.31
2023-02-06T01:49:56.066Z,1021.32
2023-02-06T01:50:56.059Z,1021.35
2023-02-06T01:51:56.037Z,1021.36
2023-02-06T01:52:56.047Z,1021.36
2023-02-06T01:53:56.017Z,1021.41
2023-02-06T01:54:56.020Z,1021.36
2023-02-06T01:55:56.005Z,1021.37
2023-02-06T01:56:55.995Z,1021.36
2023-02-06T01:57:56.007Z,1021.38
2023-02-06T01:58:55.966Z,1021.32
2023-02-06T01:59:55.955Z,1021.35
2023-02-06T02:00:56.010Z,1021.32
2023-02-06T02:01:55.984Z,1021.27
2023-02-06T02:02:55.936Z,1021.29
2023-02-06T02:03:55.926Z,1021.21
2023-02-06T02:04:55.905Z,1021.23
2023-02-06T02:05:55.896Z,1021.21
2023-02-06T02:06:55.883Z,1021.21
2023-02-06T02:07:55.867Z,1021.22
2023-02-06T02:08:58.075Z,1021.17
2023-02-06T02:09:55.849Z,1021.15
2023-02-06T02:10:55.837Z,1021.16
2023-02-06T02:11:55.818Z,1021.20
2023-02-06T02:12:55.819Z,1021.15
2023-02-06T02:13:55.806Z,1021.12
2023-02-06T02:14:55.822Z,1021.09
2023-02-06T02:15:55.821Z,1021.07
2023-02-06T02:16:55.775Z,1021.10
2023-02-06T02:17:55.781Z,1021.08
2023-02-06T02:18:55.764Z,1021.04
2023-02-06T02:19:55.745Z,1021.11
2023-02-06T02:20:55.749Z,1021.08
2023-02-06T02:21:55.721Z,1021.04
2023-02-06T02:22:55.714Z,1021.09
2023-02-06T02:23:55.704Z,1021.06
2023-02-06T02:24:55.694Z,1021.00
2023-02-06T02:25:55.706Z,1020.99
2023-02-06T02:26:55.662Z,1021.00
2023-02-06T02:27:55.676Z,1020.97
2023-02-06T02:28:55.646Z,1020.92
2023-02-06T02:29:55.633Z,1020.96
2023-02-06T02:30:55.655Z,1020.95
2023-02-06T02:31:55.635Z,1020.99
2023-02-06T02:32:55.602Z,1020.95
2023-02-06T02:33:55.594Z,1020.95
2023-02-06T02:34:55.592Z,1020.95
2023-02-06T02:35:55.576Z,1020.97
2023-02-06T02:36:55.583Z,1020.92
2023-02-06T02:37:55.542Z,1020.97
2023-02-06T02:38:55.540Z,1020.99
2023-02-06T02:39:55.522Z,1020.98
2023-02-06T02:40:55.521Z,1021.00
2023-02-06T02:41:55.505Z,1020.98
2023-02-06T02:42:55.542Z,1021.00
2023-02-06T02:43:55.481Z,1021.04
2023-02-06T02:44:55.473Z,1021.00
2023-02-06T02:45:55.499Z,1021.00
2023-02-06T02:46:55.450Z,1021.01
2023-02-06T02:47:55.429Z,1021.03
2023-02-06T02:48:55.439Z,1021.05
2023-02-06T02:49:55.409Z,1021.01
2023-02-06T02:50:55.411Z,1020.98
2023-02-06T02:51:55.391Z,1021.04
2023-02-06T02:52:55.376Z,1021.04
2023-02-06T02:53:55.368Z,1021.06
2023-02-06T02:54:55.386Z,1021.10
2023-02-06T02:55:55.347Z,1021.10
2023-02-06T02:56:55.336Z,1021.07
2023-02-06T02:57:55.317Z,1021.06
2023-02-06T02:58:55.316Z,1021.12
2023-02-06T02:59:55.315Z,1021.11
2023-02-06T03:00:55.347Z,1021.13
2023-02-06T03:01:55.311Z,1021.15
2023-02-06T03:02:55.264Z,1021.14
2023-02-06T03:03:55.255Z,1021.14
2023-02-06T03:04:55.246Z,1021.12
2023-02-06T03:05:55.262Z,1021.19
2023-02-06T03:06:55.224Z,1021.16
2023-02-06T03:07:55.215Z,1021.23
2023-02-06T03:08:55.207Z,1021.20
2023-02-06T03:09:55.184Z,1021.17
2023-02-06T03:10:55.184Z,1021.17
2023-02-06T03:11:55.192Z,1021.21
2023-02-06T03:12:55.162Z,1021.17
2023-02-06T03:13:55.142Z,1021.21
2023-02-06T03:14:55.130Z,1021.19
2023-02-06T03:15:55.125Z,1021.17
2023-02-06T03:16:55.114Z,1021.14
2023-02-06T03:17:55.130Z,1021.15
2023-02-06T03:18:55.093Z,1021.14
2023-02-06T03:19:55.092Z,1021.14
2023-02-06T03:20:55.088Z,1021.14
2023-02-06T03:21:55.072Z,1021.15
2023-02-06T03:22:55.053Z,1021.07
2023-02-06T03:23:55.092Z,1021.07
2023-02-06T03:24:55.026Z,1021.03
2023-02-06T03:25:55.012Z,1021.11
2023-02-06T03:26:55.003Z,1020.99
2023-02-06T03:27:55.014Z,1021.09
2023-02-06T03:28:54.983Z,1021.05
2023-02-06T03:29:54.984Z,1021.02
2023-02-06T03:30:55.011Z,1020.99
2023-02-06T03:31:54.998Z,1021.06
2023-02-06T03:32:54.937Z,1021.01
2023-02-06T03:33:54.923Z,1021.00
2023-02-06T03:34:54.922Z,1021.03
2023-02-06T03:35:54.932Z,1021.10
2023-02-06T03:36:54.900Z,1021.08
2023-02-06T03:37:54.876Z,1021.09
2023-02-06T03:38:54.880Z,1021.13
2023-02-06T03:39:54.864Z,1021.13
2023-02-06T03:40:54.849Z,1021.10
2023-02-06T03:41:54.852Z,1021.13
2023-02-06T03:42:54.823Z,1021.16
2023-02-06T03:43:54.813Z,1021.22
2023-02-06T03:44:54.812Z,1021.12
2023-02-06T03:45:54.816Z,1021.14
2023-02-06T03:46:54.826Z,1021.10
2023-02-06T03:47:54.773Z,1021.09
2023-02-06T03:48:54.762Z,1021.14
2023-02-06T03:49:54.744Z,1021.19
2023-02-06T03:50:54.739Z,1021.10
2023-02-06T03:51:54.722Z,1021.18
2023-02-06T03:52:54.732Z,1021.17
2023-02-06T03:53:54.702Z,1021.15
2023-02-06T03:54:54.693Z,1021.16
2023-02-06T03:55:54.686Z,1021.12
2023-02-06T03:56:54.687Z,1021.11
2023-02-06T03:57:54.666Z,1021.12
2023-02-06T03:58:54.675Z,1021.13
2023-02-06T03:59:54.641Z,1021.12
2023-02-06T04:00:54.632Z,1021.16
2023-02-06T04:01:54.615Z,1021.14
2023-02-06T04:02:54.611Z,1021.17
2023-02-06T04:03:54.594Z,1021.16
2023-02-06T04:04:54.609Z,1021.25
2023-02-06T04:05:54.576Z,1021.22
2023-02-06T04:06:54.566Z,1021.19
2023-02-06T04:07:54.553Z,1021.22
2023-02-06T04:08:54.547Z,1021.20
2023-02-06T04:09:54.527Z,1021.20
2023-02-06T04:10:54.545Z,1021.19
2023-02-06T04:11:54.505Z,1021.18
2023-02-06T04:12:54.516Z,1021.19
2023-02-06T04:13:54.492Z,1021.19
2023-02-06T04:14:54.480Z,1021.23
2023-02-06T04:15:54.486Z,1021.19
2023-02-06T04:16:54.458Z,1021.19
2023-02-06T04:18:00.566Z,1021.20
2023-02-06T04:18:55.436Z,1021.18
2023-02-06T04:19:54.416Z,1021.18
2023-02-06T04:20:54.414Z,1021.20
2023-02-06T04:21:54.422Z,1021.22
2023-02-06T04:22:54.389Z,1021.17
2023-02-06T04:23:54.366Z,1021.18
2023-02-06T04:24:54.369Z,1021.27
2023-02-06T04:25:54.354Z,1021.26
2023-02-06T04:26:54.377Z,1021.23
2023-02-06T04:27:54.363Z,1021.24
2023-02-06T04:28:54.317Z,1021.33
2023-02-06T04:29:54.330Z,1021.33
2023-02-06T04:30:54.368Z,1021.33
2023-02-06T04:31:54.290Z,1021.37
2023-02-06T04:32:54.304Z,1021.35
2023-02-06T04:33:54.265Z,1021.40
2023-02-06T04:34:54.256Z,1021.39
2023-02-06T04:35:54.247Z,1021.38
2023-02-06T04:36:54.234Z,1021.39
2023-02-06T04:37:54.266Z,1021.39
2023-02-06T04:38:54.222Z,1021.37
2023-02-06T04:39:54.196Z,1021.43
2023-02-06T04:40:54.183Z,1021.45
2023-02-06T04:41:54.173Z,1021.51
2023-02-06T04:42:54.164Z,1021.43
2023-02-06T04:43:54.168Z,1021.43
2023-02-06T04:44:54.146Z,1021.45
2023-02-06T04:45:54.169Z,1021.44
2023-02-06T04:46:54.124Z,1021.43
2023-02-06T04:47:54.114Z,1021.42
2023-02-06T04:48:54.127Z,1021.43
2023-02-06T04:49:54.106Z,1021.36
2023-02-06T04:50:54.079Z,1021.37
2023-02-06T04:51:54.066Z,1021.35
2023-02-06T04:52:54.056Z,1021.32
2023-02-06T04:53:54.056Z,1021.26
2023-02-06T04:54:54.047Z,1021.29
2023-02-06T04:55:54.023Z,1021.29
2023-02-06T04:56:54.016Z,1021.31
2023-02-06T04:57:54.004Z,1021.33
2023-02-06T04:58:53.992Z,1021.34
2023-02-06T04:59:54.004Z,1021.35
2023-02-06T05:00:53.963Z,1021.35
2023-02-06T05:01:53.952Z,1021.38
2023-02-06T05:02:54.039Z,1021.46
2023-02-06T05:03:53.940Z,1021.34
2023-02-06T05:04:53.926Z,1021.43
2023-02-06T05:05:53.932Z,1021.41
2023-02-06T05:06:53.905Z,1021.42
2023-02-06T05:07:53.890Z,1021.47
2023-02-06T05:09:00.920Z,1021.42
2023-02-06T05:09:53.873Z,1021.37
2023-02-06T05:10:53.846Z,1021.39
2023-02-06T05:11:53.864Z,1021.36
2023-02-06T05:12:53.835Z,1021.35
2023-02-06T05:13:53.824Z,1021.41
2023-02-06T05:14:53.809Z,1021.37
2023-02-06T05:15:53.845Z,1021.40
2023-02-06T05:16:53.805Z,1021.37
2023-02-06T05:17:53.801Z,1021.41
2023-02-06T05:18:53.767Z,1021.40
2023-02-06T05:19:53.755Z,1021.44
2023-02-06T05:20:53.745Z,1021.45
2023-02-06T05:21:53.753Z,1021.44
2023-02-06T05:22:53.733Z,1021.40
2023-02-06T05:23:53.711Z,1021.42
2023-02-06T05:24:53.697Z,1021.41
2023-02-06T05:25:53.683Z,1021.40
2023-02-06T05:26:53.672Z,1021.33
2023-02-06T05:27:53.688Z,1021.31
2023-02-06T05:28:53.673Z,1021.30
2023-02-06T05:29:53.630Z,1021.38
2023-02-06T05:30:53.690Z,1021.31
2023-02-06T05:31:53.685Z,1021.34
2023-02-06T05:32:53.603Z,1021.33
2023-02-06T05:33:53.599Z,1021.33
2023-02-06T05:34:53.591Z,1021.25
2023-02-06T05:35:53.579Z,1021.29
2023-02-06T05:36:53.560Z,1021.28
2023-02-06T05:37:53.552Z,1021.23
2023-02-06T05:38:53.531Z,1021.32
2023-02-06T05:39:53.571Z,1021.31
2023-02-06T05:40:53.514Z,1021.40
2023-02-06T05:41:53.504Z,1021.40
2023-02-06T05:42:53.491Z,1021.40
2023-02-06T05:43:53.482Z,1021.40
2023-02-06T05:44:53.464Z,1021.41
2023-02-06T05:45:53.492Z,1021.44
2023-02-06T05:46:53.441Z,1021.38
2023-02-06T05:47:53.443Z,1021.43
2023-02-06T05:48:53.433Z,1021.43
2023-02-06T05:49:53.452Z,1021.43
2023-02-06T05:50:53.410Z,1021.43
2023-02-06T05:51:53.444Z,1021.42
2023-02-06T05:52:53.500Z,1021.38
2023-02-06T05:53:53.386Z,1021.44
2023-02-06T05:54:53.352Z,1021.41
2023-02-06T05:55:53.352Z,1021.39
2023-02-06T05:56:53.343Z,1021.36
2023-02-06T05:57:53.359Z,1021.36
2023-02-06T05:58:53.330Z,1021.28
2023-02-06T05:59:53.306Z,1021.29
2023-02-06T06:00:53.296Z,1021.31
2023-02-06T06:01:53.284Z,1021.36
2023-02-06T06:02:53.272Z,1021.31
2023-02-06T06:03:53.366Z,1021.37
2023-02-06T06:04:53.306Z,1021.37
2023-02-06T06:05:53.236Z,1021.36
2023-02-06T06:06:53.231Z,1021.34
2023-02-06T06:07:53.215Z,1021.31
2023-02-06T06:08:53.265Z,1021.31
2023-02-06T06:09:53.194Z,1021.28
2023-02-06T06:10:53.180Z,1021.31
2023-02-06T06:11:53.166Z,1021.33
2023-02-06T06:12:53.166Z,1021.30
2023-02-06T06:13:53.153Z,1021.29
2023-02-06T06:14:54.866Z,1021.30
2023-02-06T06:15:53.179Z,1021.29
2023-02-06T06:16:53.115Z,1021.22
2023-02-06T06:17:53.105Z,1021.18
2023-02-06T06:18:53.086Z,1021.25
2023-02-06T06:19:53.095Z,1021.25
2023-02-06T06:20:53.075Z,1021.30
2023-02-06T06:21:53.058Z,1021.29
2023-02-06T06:22:53.055Z,1021.23
2023-02-06T06:23:53.065Z,1021.31
2023-02-06T06:24:53.032Z,1021.34
2023-02-06T06:25:53.034Z,1021.45
2023-02-06T06:26:52.995Z,1021.38
2023-02-06T06:27:53.014Z,1021.41
2023-02-06T06:28:52.974Z,1021.52
2023-02-06T06:29:53.060Z,1021.55
2023-02-06T06:30:52.988Z,1021.57
2023-02-06T06:31:52.996Z,1021.54
2023-02-06T06:32:52.928Z,1021.57
2023-02-06T06:33:52.931Z,1021.55
2023-02-06T06:34:52.917Z,1021.46
2023-02-06T06:35:52.907Z,1021.50
2023-02-06T06:36:52.882Z,1021.47
2023-02-06T06:37:52.896Z,1021.49
2023-02-06T06:38:52.866Z,1021.40
2023-02-06T06:39:52.854Z,1021.41
2023-02-06T06:40:52.842Z,1021.36
2023-02-06T06:41:52.915Z,1021.43
2023-02-06T06:42:52.818Z,1021.44
2023-02-06T06:43:52.876Z,1021.45
2023-02-06T06:44:52.803Z,1021.40
2023-02-06T06:45:52.812Z,1021.39
2023-02-06T06:46:52.769Z,1021.44
2023-02-06T06:47:52.764Z,1021.43
2023-02-06T06:48:52.759Z,1021.41
2023-02-06T06:49:52.762Z,1021.45
2023-02-06T06:50:52.721Z,1021.40
2023-02-06T06:51:52.711Z,1021.39
2023-02-06T06:52:52.727Z,1021.42
2023-02-06T06:53:52.699Z,1021.45
2023-02-06T06:54:52.920Z,1021.35
2023-02-06T06:55:52.706Z,1021.43
2023-02-06T06:56:52.658Z,1021.51
2023-02-06T06:57:52.658Z,1021.50
2023-02-06T06:58:52.630Z,1021.47
2023-02-06T06:59:52.623Z,1021.50
2023-02-06T07:00:52.647Z,1021.47
2023-02-06T07:01:52.632Z,1021.53
2023-02-06T07:02:52.620Z,1021.50
2023-02-06T07:03:52.579Z,1021.56
2023-02-06T07:04:52.563Z,1021.55
2023-02-06T07:05:53.348Z,1021.58
2023-02-06T07:06:52.561Z,1021.58
2023-02-06T07:07:52.527Z,1021.54
2023-02-06T07:08:52.521Z,1021.57
2023-02-06T07:09:52.511Z,1021.54
2023-02-06T07:10:52.489Z,1021.56
2023-02-06T07:11:52.490Z,1021.50
2023-02-06T07:12:52.501Z,1021.52
2023-02-06T07:13:52.462Z,1021.48
2023-02-06T07:14:52.449Z,1021.57
2023-02-06T07:15:52.446Z,1021.54
2023-02-06T07:16:52.437Z,1021.56
2023-02-06T07:17:52.420Z,1021.52
2023-02-06T07:18:52.428Z,1021.48
2023-02-06T07:19:52.417Z,1021.48
2023-02-06T07:20:52.380Z,1021.49
2023-02-06T07:21:52.412Z,1021.47
2023-02-06T07:22:52.360Z,1021.47
2023-02-06T07:23:52.372Z,1021.46
2023-02-06T07:24:54.351Z,1021.51
2023-02-06T07:25:52.333Z,1021.55
2023-02-06T07:26:52.309Z,1021.53
2023-02-06T07:27:52.352Z,1021.61
2023-02-06T07:28:52.289Z,1021.56
2023-02-06T07:29:52.300Z,1021.51
2023-02-06T07:30:52.292Z,1021.56
2023-02-06T07:31:52.285Z,1021.54
2023-02-06T07:32:52.252Z,1021.60
2023-02-06T07:33:52.246Z,1021.59
2023-02-06T07:34:52.221Z,1021.63
2023-02-06T07:35:52.228Z,1021.60
2023-02-06T07:36:52.201Z,1021.61
2023-02-06T07:37:52.199Z,1021.61
2023-02-06T07:38:52.178Z,1021.66
2023-02-06T07:39:52.236Z,1021.63
2023-02-06T07:40:52.181Z,1021.54
2023-02-06T07:41:52.151Z,1021.55
2023-02-06T07:42:52.141Z,1021.57
2023-02-06T07:43:52.127Z,1021.53
2023-02-06T07:44:52.115Z,1021.48
2023-02-06T07:45:52.118Z,1021.51
2023-02-06T07:46:52.106Z,1021.51
2023-02-06T07:47:52.084Z,1021.53
2023-02-06T07:48:52.074Z,1021.52
2023-02-06T07:49:52.056Z,1021.51
2023-02-06T07:50:52.050Z,1021.52
2023-02-06T07:51:52.058Z,1021.53
2023-02-06T07:52:52.020Z,1021.52
2023-02-06T07:53:52.013Z,1021.52
2023-02-06T07:54:52.016Z,1021.51
2023-02-06T08:40:43.605Z,1021.53
2023-02-06T08:41:43.580Z,1021.49
2023-02-06T08:42:43.582Z,1021.59
2023-02-06T08:43:43.560Z,1021.51
2023-02-06T08:44:43.554Z,1021.47
2023-02-06T08:45:43.621Z,1021.47
2023-02-06T08:46:43.579Z,1021.57
2023-02-06T08:47:43.482Z,1021.55
2023-02-06T08:48:43.500Z,1021.50
2023-02-06T08:49:43.480Z,1021.49
2023-02-06T08:50:43.497Z,1021.47
2023-02-06T08:51:43.447Z,1021.56
2023-02-06T08:52:43.461Z,1021.42
2023-02-06T08:53:43.437Z,1021.42
2023-02-06T08:54:43.418Z,1021.44
2023-02-06T08:55:43.493Z,1021.37
2023-02-06T08:56:43.448Z,1021.32
2023-02-06T08:57:43.373Z,1021.26
2023-02-06T08:58:43.382Z,1021.29
2023-02-06T08:59:43.368Z,1021.32
2023-02-06T09:00:43.357Z,1021.31
2023-02-06T09:01:43.558Z,1021.37
2023-02-06T09:02:43.372Z,1021.34
2023-02-06T09:03:43.318Z,1021.38
2023-02-06T09:04:43.299Z,1021.34
2023-02-06T09:05:43.690Z,1021.37
2023-02-06T09:06:43.279Z,1021.42
2023-02-06T09:07:43.659Z,1021.41
2023-02-06T09:08:43.246Z,1021.45
2023-02-06T09:09:43.607Z,1021.40
2023-02-06T09:10:43.330Z,1021.42
2023-02-06T09:11:43.244Z,1021.42
2023-02-06T09:12:43.249Z,1021.46
2023-02-06T09:13:43.188Z,1021.53
2023-02-06T09:14:43.233Z,1021.51
2023-02-06T09:15:43.301Z,1021.52
2023-02-06T09:16:43.171Z,1021.60
2023-02-06T09:17:43.152Z,1021.61
2023-02-06T09:18:43.149Z,1021.57
2023-02-06T09:19:43.139Z,1021.66
2023-02-06T09:20:43.131Z,1021.66
2023-02-06T09:21:43.113Z,1021.64
2023-02-06T09:22:43.101Z,1021.67
2023-02-06T09:23:43.077Z,1021.65
2023-02-06T09:24:43.082Z,1021.58
2023-02-06T09:25:43.085Z,1021.57
2023-02-06T09:26:58.549Z,1021.57
2023-02-06T09:27:44.089Z,1021.53
2023-02-06T09:28:43.047Z,1021.48
2023-02-06T09:29:43.050Z,1021.53
2023-02-06T09:30:42.994Z,1021.51
2023-02-06T09:31:43.016Z,1021.52
2023-02-06T09:32:43.029Z,1021.53
2023-02-06T09:33:42.944Z,1021.50
2023-02-06T09:34:42.931Z,1021.47
2023-02-06T09:35:42.953Z,1021.38
2023-02-06T09:36:42.910Z,1021.39
2023-02-06T09:37:42.928Z,1021.38
2023-02-06T09:38:42.888Z,1021.33
2023-02-06T09:39:42.869Z,1021.36
2023-02-06T09:40:42.870Z,1021.30
2023-02-06T09:41:42.902Z,1021.25
2023-02-06T09:42:42.862Z,1021.23
2023-02-06T09:43:42.861Z,1021.15
2023-02-06T09:44:42.832Z,1021.25
2023-02-06T09:45:42.821Z,1021.33
2023-02-06T09:46:42.850Z,1021.23
2023-02-06T09:47:42.831Z,1021.22
2023-02-06T09:48:42.786Z,1021.23
2023-02-06T09:49:42.778Z,1021.25
2023-02-06T09:50:42.778Z,1021.20
2023-02-06T09:51:42.787Z,1021.27
2023-02-06T09:52:42.741Z,1021.21
2023-02-06T09:53:42.758Z,1021.20
2023-02-06T09:54:42.716Z,1021.27
2023-02-06T09:55:42.709Z,1021.20
2023-02-06T09:56:42.701Z,1021.19
2023-02-06T09:57:42.743Z,1021.18
2023-02-06T09:58:42.687Z,1021.13
2023-02-06T09:59:42.654Z,1021.21
2023-02-06T10:00:42.651Z,1021.16
2023-02-06T10:01:42.690Z,1021.14
2023-02-06T10:02:42.625Z,1021.11
2023-02-06T10:03:42.609Z,1021.15
2023-02-06T10:04:42.616Z,1021.12
2023-02-06T10:05:42.568Z,1021.18
2023-02-06T10:06:42.694Z,1021.10
2023-02-06T10:07:42.597Z,1021.09
2023-02-06T10:08:42.553Z,1021.12
2023-02-06T10:09:42.533Z,1021.08
2023-02-06T10:10:42.573Z,1020.96
2023-02-06T10:11:42.504Z,1020.96
2023-02-06T10:12:42.534Z,1020.89
2023-02-06T10:13:52.323Z,1021.00
2023-02-06T10:14:42.481Z,1020.98
2023-02-06T10:15:42.600Z,1021.05
2023-02-06T10:16:42.480Z,1021.08
2023-02-06T10:17:42.440Z,1021.02
2023-02-06T10:18:42.444Z,1021.09
2023-02-06T10:19:42.429Z,1021.06
2023-02-06T10:20:42.456Z,1021.06
2023-02-06T10:21:42.435Z,1021.01
2023-02-06T10:22:42.428Z,1021.07
2023-02-06T10:23:42.371Z,1021.02
2023-02-06T10:24:42.439Z,1021.08
2023-02-06T10:25:42.434Z,1020.96
2023-02-06T10:26:42.382Z,1021.01
2023-02-06T10:27:42.344Z,1020.96
2023-02-06T10:28:42.375Z,1020.98
2023-02-06T10:29:42.365Z,1021.00
2023-02-06T10:30:43.146Z,1020.88
2023-02-06T10:31:42.455Z,1020.89
2023-02-06T10:32:42.687Z,1020.94
2023-02-06T10:33:42.292Z,1020.85
2023-02-06T10:34:42.274Z,1020.91
2023-02-06T10:35:42.256Z,1020.91
2023-02-06T10:36:42.277Z,1020.86
2023-02-06T10:37:42.235Z,1020.85
2023-02-06T10:38:42.285Z,1020.73
2023-02-06T10:39:42.252Z,1020.84
2023-02-06T10:40:42.236Z,1020.75
2023-02-06T10:41:42.581Z,1020.77
2023-02-06T10:42:42.169Z,1020.79
2023-02-06T10:43:42.173Z,1020.71
2023-02-06T10:44:50.694Z,1020.74
2023-02-06T10:45:43.155Z,1020.73
2023-02-06T10:46:42.357Z,1020.71
2023-02-06T10:47:42.312Z,1020.67
2023-02-06T10:48:42.135Z,1020.72
2023-02-06T10:49:42.166Z,1020.68
2023-02-06T10:50:42.142Z,1020.71
2023-02-06T10:51:42.086Z,1020.68
2023-02-06T10:52:42.088Z,1020.69
2023-02-06T10:53:42.066Z,1020.67
2023-02-06T10:54:42.035Z,1020.62
2023-02-06T10:55:42.779Z,1020.66
2023-02-06T10:56:42.066Z,1020.62
2023-02-06T10:57:42.036Z,1020.59
2023-02-06T10:58:42.016Z,1020.62
2023-02-06T10:59:41.981Z,1020.58
2023-02-06T11:00:42.057Z,1020.56
2023-02-06T11:01:42.116Z,1020.55
2023-02-06T11:02:42.009Z,1020.53
2023-02-06T11:03:41.951Z,1020.48
2023-02-06T11:04:41.953Z,1020.49
2023-02-06T11:05:41.908Z,1020.48
2023-02-06T11:06:42.351Z,1020.51
2023-02-06T11:07:41.897Z,1020.46
2023-02-06T11:08:41.909Z,1020.48
2023-02-06T11:09:41.914Z,1020.39
2023-02-06T11:10:41.843Z,1020.41
2023-02-06T11:11:41.844Z,1020.35
2023-02-06T11:12:41.896Z,1020.32
2023-02-06T11:13:42.007Z,1020.32
2023-02-06T11:14:41.852Z,1020.36
2023-02-06T11:15:41.809Z,1020.29
2023-02-06T11:16:41.870Z,1020.26
2023-02-06T11:17:41.850Z,1020.36
2023-02-06T11:18:41.754Z,1020.15
2023-02-06T11:19:41.774Z,1020.17
2023-02-06T11:20:41.713Z,1020.17
2023-02-06T11:21:41.717Z,1020.20
2023-02-06T11:22:52.409Z,1020.19
2023-02-06T11:23:42.794Z,1020.15
2023-02-06T11:24:41.906Z,1020.17
2023-02-06T11:25:45.493Z,1020.20
2023-02-06T11:26:41.793Z,1020.18
2023-02-06T11:27:43.045Z,1020.08
2023-02-06T11:28:41.631Z,1020.06
2023-02-06T11:29:41.642Z,1020.07
2023-02-06T11:30:41.708Z,1020.02
2023-02-06T11:31:43.448Z,1020.03
2023-02-06T11:32:41.620Z,1020.04
2023-02-06T11:33:41.588Z,1020.00
2023-02-06T11:34:41.563Z,1020.02
2023-02-06T11:35:41.574Z,1020.02
2023-02-06T11:36:41.615Z,1020.03
2023-02-06T11:37:41.632Z,1020.03
2023-02-06T11:38:41.510Z,1019.98
2023-02-06T11:39:41.504Z,1020.03
2023-02-06T11:40:41.811Z,1020.00
2023-02-06T11:41:41.510Z,1019.99
2023-02-06T11:42:41.475Z,1020.02
2023-02-06T11:43:41.502Z,1019.94
2023-02-06T11:44:41.449Z,1019.98
2023-02-06T11:45:41.880Z,1019.97
2023-02-06T11:46:41.464Z,1019.95
2023-02-06T11:47:41.459Z,1020.00
2023-02-06T11:48:41.451Z,1019.97
2023-02-06T11:49:41.788Z,1019.98
2023-02-06T11:50:41.440Z,1020.03
2023-02-06T11:51:41.388Z,1020.00
2023-02-06T11:52:41.390Z,1019.97
2023-02-06T11:53:41.427Z,1019.99
2023-02-06T11:54:41.352Z,1019.96
2023-02-06T11:55:41.336Z,1019.98
2023-02-06T11:56:41.322Z,1019.82
2023-02-06T11:57:41.304Z,1019.87
2023-02-06T11:58:41.311Z,1019.75
2023-02-06T11:59:41.461Z,1019.84
2023-02-06T12:00:41.303Z,1019.77
2023-02-06T12:01:41.318Z,1019.76
2023-02-06T12:02:41.240Z,1019.74
2023-02-06T12:03:41.281Z,1019.70
2023-02-06T12:04:41.211Z,1019.73
2023-02-06T12:05:41.241Z,1019.73
2023-02-06T12:06:41.387Z,1019.74
2023-02-06T12:07:41.194Z,1019.81
2023-02-06T12:08:41.191Z,1019.77
2023-02-06T12:09:41.172Z,1019.71
2023-02-06T12:10:41.170Z,1019.67
2023-02-06T12:11:41.145Z,1019.65
2023-02-06T12:12:41.112Z,1019.63
2023-02-06T12:13:41.155Z,1019.62
2023-02-06T12:14:41.173Z,1019.52
2023-02-06T12:15:47.075Z,1019.53
2023-02-06T12:16:42.187Z,1019.53
2023-02-06T12:17:41.127Z,1019.53
2023-02-06T12:18:41.055Z,1019.55
2023-02-06T12:19:41.082Z,1019.49
2023-02-06T12:20:41.026Z,1019.55
2023-02-06T12:21:41.060Z,1019.53
2023-02-06T12:22:41.056Z,1019.52
2023-02-06T12:23:41.005Z,1019.56
2023-02-06T12:24:41.027Z,1019.57
2023-02-06T12:25:40.990Z,1019.53
2023-02-06T12:26:40.991Z,1019.54
2023-02-06T12:27:41.014Z,1019.55
2023-02-06T12:28:40.931Z,1019.61
2023-02-06T12:29:40.972Z,1019.62
2023-02-06T12:30:41.048Z,1019.63
2023-02-06T12:31:40.977Z,1019.58
2023-02-06T12:32:41.729Z,1019.54
2023-02-06T12:33:40.968Z,1019.52
2023-02-06T12:34:40.878Z,1019.60
2023-02-06T12:35:41.084Z,1019.61
2023-02-06T12:36:40.860Z,1019.56
2023-02-06T12:37:40.827Z,1019.56
2023-02-06T12:38:40.892Z,1019.54
2023-02-06T12:39:40.864Z,1019.49
2023-02-06T12:40:41.063Z,1019.52
2023-02-06T12:41:40.794Z,1019.41
2023-02-06T12:42:40.823Z,1019.43
2023-02-06T12:43:40.778Z,1019.46
2023-02-06T12:44:40.756Z,1019.47
2023-02-06T12:45:40.792Z,1019.47
2023-02-06T12:46:40.751Z,1019.45
2023-02-06T12:47:40.754Z,1019.40
2023-02-06T12:48:40.790Z,1019.37
2023-02-06T12:49:40.701Z,1019.36
2023-02-06T12:50:40.900Z,1019.36